Time;durP1;ratioP1;P1;durP2;ratioP2;P2;SDS_P1;SDS_P2;PMS_P1;PMS_P2;Temp;Humidity;BMP_temperature;BMP_pressure;BME280_temperature;BME280_humidity;BME280_pressure;Samples;Min_cycle;Max_cycle;Signal;HPM_P1;HPM_P2
2023/10/30 00:01:39;;;;;;;0.80;0.80;;;;;;;;;;5069883;28;20211;-32
2023/10/30 00:04:06;;;;;;;0.87;0.87;;;;;;;;;;5066365;28;20221;-30
2023/10/30 00:06:34;;;;;;;1.00;0.90;;;;;;;;;;5064390;28;20205;-32
2023/10/30 00:09:01;;;;;;;1.10;1.00;;;;;;;;;;5064451;28;20328;-35
2023/10/30 00:11:29;;;;;;;0.80;0.80;;;;;;;;;;5068256;28;20209;-30
2023/10/30 00:13:56;;;;;;;0.90;0.90;;;;;;;;;;5069581;28;20232;-32
2023/10/30 00:16:23;;;;;;;0.77;0.77;;;;;;;;;;5068363;28;20715;-34
2023/10/30 00:18:52;;;;;;;0.90;0.90;;;;;;;;;;5064778;28;20221;-31
2023/10/30 00:21:19;;;;;;;0.70;0.70;;;;;;;;;;5067471;28;20238;-30
2023/10/30 00:23:46;;;;;;;0.80;0.80;;;;;;;;;;5065533;28;20223;-30
2023/10/30 00:26:13;;;;;;;2.00;0.90;;;;;;;;;;5063900;28;20213;-31
2023/10/30 00:28:40;;;;;;;1.03;0.80;;;;;;;;;;5069973;28;20236;-30
2023/10/30 00:31:07;;;;;;;1.27;1.00;;;;;;;;;;5067811;28;20236;-31
2023/10/30 00:33:35;;;;;;;0.73;0.70;;;;;;;;;;5065925;28;20251;-30
2023/10/30 00:36:03;;;;;;;1.67;1.07;;;;;;;;;;5066548;28;20816;-30
2023/10/30 00:38:30;;;;;;;1.17;1.07;;;;;;;;;;5068751;28;20292;-32
2023/10/30 00:40:57;;;;;;;0.80;0.80;;;;;;;;;;5059809;28;20197;-30
2023/10/30 00:43:25;;;;;;;1.90;0.87;;;;;;;;;;5068434;28;20225;-32
2023/10/30 00:45:53;;;;;;;0.80;0.80;;;;;;;;;;5068574;28;20547;-32
2023/10/30 00:48:22;;;;;;;0.70;0.70;;;;;;;;;;5064825;28;20205;-31
2023/10/30 00:50:50;;;;;;;0.67;0.67;;;;;;;;;;5066537;28;20213;-30
2023/10/30 00:53:18;;;;;;;0.70;0.70;;;;;;;;;;5067768;28;20609;-30
2023/10/30 00:55:45;;;;;;;1.13;0.77;;;;;;;;;;5063835;28;20221;-30
2023/10/30 00:58:12;;;;;;;0.60;0.60;;;;;;;;;;5067015;28;20215;-31
2023/10/30 01:00:39;;;;;;;0.73;0.73;;;;;;;;;;5059949;28;20217;-30
2023/10/30 01:03:07;;;;;;;1.67;1.00;;;;;;;;;;5064019;28;20269;-30
2023/10/30 01:05:34;;;;;;;0.70;0.70;;;;;;;;;;5065454;28;20292;-31
2023/10/30 01:08:08;;;;;;;0.83;0.83;;;;;;;;;;5068860;28;20233;-30
2023/10/30 01:10:36;;;;;;;0.97;0.80;;;;;;;;;;5063700;28;20216;-30
2023/10/30 01:13:03;;;;;;;1.07;0.93;;;;;;;;;;5068424;28;20332;-30
2023/10/30 01:15:31;;;;;;;2.27;1.00;;;;;;;;;;5068973;28;20236;-30
2023/10/30 01:17:58;;;;;;;0.87;0.87;;;;;;;;;;5060994;28;20198;-32
2023/10/30 01:20:25;;;;;;;0.80;0.80;;;;;;;;;;5063168;28;20731;-31
2023/10/30 01:22:52;;;;;;;1.10;0.90;;;;;;;;;;5069203;28;20201;-31
2023/10/30 01:25:19;;;;;;;5.07;1.03;;;;;;;;;;5064109;28;20233;-31
2023/10/30 01:27:48;;;;;;;0.77;0.77;;;;;;;;;;5066190;28;20292;-31
2023/10/30 01:30:15;;;;;;;1.43;0.77;;;;;;;;;;5070185;28;20530;-31
2023/10/30 01:32:42;;;;;;;0.60;0.60;;;;;;;;;;5067392;28;20201;-30
2023/10/30 01:35:09;;;;;;;1.10;0.70;;;;;;;;;;5057946;28;20325;-36
2023/10/30 01:37:36;;;;;;;0.80;0.80;;;;;;;;;;5070089;28;20211;-30
2023/10/30 01:40:07;;;;;;;1.50;0.77;;;;;;;;;;5061723;28;20216;-30
2023/10/30 01:42:34;;;;;;;1.10;0.90;;;;;;;;;;5061709;28;20198;-30
2023/10/30 01:45:03;;;;;;;1.07;0.90;;;;;;;;;;5071768;28;20804;-30
2023/10/30 01:47:30;;;;;;;1.93;0.80;;;;;;;;;;5072085;28;20201;-30
2023/10/30 01:49:58;;;;;;;0.80;0.80;;;;;;;;;;5063035;28;20232;-30
2023/10/30 01:52:28;;;;;;;0.97;0.73;;;;;;;;;;5070650;28;20201;-31
2023/10/30 01:54:55;;;;;;;1.33;0.80;;;;;;;;;;5063907;28;20299;-29
2023/10/30 01:57:23;;;;;;;0.77;0.77;;;;;;;;;;5064445;28;20245;-29
2023/10/30 01:59:51;;;;;;;0.60;0.60;;;;;;;;;;5068455;28;20205;-30
2023/10/30 02:02:20;;;;;;;1.63;0.90;;;;;;;;;;5058319;28;20210;-32
2023/10/30 02:04:47;;;;;;;0.80;0.80;;;;;;;;;;5067950;28;20312;-31
2023/10/30 02:07:14;;;;;;;1.90;0.80;;;;;;;;;;5067029;28;20291;-30
2023/10/30 02:09:42;;;;;;;1.13;0.87;;;;;;;;;;5062863;28;20201;-30
2023/10/30 02:12:10;;;;;;;1.10;1.10;;;;;;;;;;5060995;28;20211;-31
2023/10/30 02:14:37;;;;;;;0.70;0.70;;;;;;;;;;5068416;28;20236;-29
2023/10/30 02:17:04;;;;;;;1.00;1.00;;;;;;;;;;5068349;28;20205;-32
2023/10/30 02:19:33;;;;;;;1.20;1.10;;;;;;;;;;5056798;28;20205;-32
2023/10/30 02:22:00;;;;;;;1.43;1.10;;;;;;;;;;5062851;28;20213;-30
2023/10/30 02:24:27;;;;;;;2.80;1.10;;;;;;;;;;5063253;28;20284;-30
2023/10/30 02:26:56;;;;;;;1.30;1.03;;;;;;;;;;5064190;28;20201;-31
2023/10/30 02:29:23;;;;;;;2.63;1.00;;;;;;;;;;5067522;28;20227;-31
2023/10/30 02:31:51;;;;;;;1.20;1.10;;;;;;;;;;5067580;28;20263;-31
2023/10/30 02:34:18;;;;;;;1.30;1.20;;;;;;;;;;5057983;28;20229;-33
2023/10/30 02:36:45;;;;;;;1.83;1.07;;;;;;;;;;5060939;28;20212;-31
2023/10/30 02:39:12;;;;;;;2.13;1.80;;;;;;;;;;5061531;28;20205;-33
2023/10/30 02:41:39;;;;;;;1.60;1.50;;;;;;;;;;5059950;28;20214;-31
2023/10/30 02:44:08;;;;;;;2.87;2.37;;;;;;;;;;5067892;28;20217;-29
2023/10/30 02:46:35;;;;;;;2.10;2.00;;;;;;;;;;5067450;28;20205;-31
2023/10/30 02:49:03;;;;;;;1.50;1.40;;;;;;;;;;5064220;28;20297;-32
2023/10/30 02:51:30;;;;;;;2.13;1.93;;;;;;;;;;5065666;28;20327;-30
2023/10/30 02:53:57;;;;;;;1.97;1.73;;;;;;;;;;5063147;28;20369;-29
2023/10/30 02:56:24;;;;;;;1.87;1.77;;;;;;;;;;5064064;28;20221;-31
2023/10/30 02:58:51;;;;;;;2.00;1.90;;;;;;;;;;5071529;28;20564;-30
2023/10/30 03:01:20;;;;;;;1.50;1.40;;;;;;;;;;5071017;28;20300;-30
2023/10/30 03:03:47;;;;;;;3.03;2.20;;;;;;;;;;5065547;28;20251;-34
2023/10/30 03:06:14;;;;;;;2.97;2.63;;;;;;;;;;5058976;28;20237;-31
2023/10/30 03:08:41;;;;;;;2.83;2.37;;;;;;;;;;5061938;28;20220;-32
2023/10/30 03:11:08;;;;;;;2.50;2.27;;;;;;;;;;5069858;28;20284;-30
2023/10/30 03:13:35;;;;;;;1.73;1.63;;;;;;;;;;5072421;28;20231;-31
2023/10/30 03:16:02;;;;;;;1.47;1.37;;;;;;;;;;5072139;28;20287;-29
2023/10/30 03:18:31;;;;;;;2.50;2.30;;;;;;;;;;5066645;28;20287;-30
2023/10/30 03:20:58;;;;;;;2.77;2.57;;;;;;;;;;5065687;28;20207;-29
2023/10/30 03:23:25;;;;;;;3.80;2.60;;;;;;;;;;5070855;28;20325;-30
2023/10/30 03:25:52;;;;;;;2.57;2.10;;;;;;;;;;5058972;28;20290;-31
2023/10/30 03:28:20;;;;;;;1.80;1.20;;;;;;;;;;5071095;28;20262;-32
2023/10/30 03:30:47;;;;;;;1.60;1.50;;;;;;;;;;5070508;28;20219;-30
2023/10/30 03:33:14;;;;;;;1.70;1.60;;;;;;;;;;5068534;28;20208;-31
2023/10/30 03:35:42;;;;;;;2.40;2.00;;;;;;;;;;5066704;28;20274;-29
2023/10/30 03:38:10;;;;;;;1.47;1.23;;;;;;;;;;5071228;28;20198;-31
2023/10/30 03:40:37;;;;;;;2.10;2.00;;;;;;;;;;5061434;28;20201;-31
2023/10/30 03:43:04;;;;;;;1.87;1.77;;;;;;;;;;5068952;28;20213;-29
2023/10/30 03:45:31;;;;;;;2.33;2.00;;;;;;;;;;5075095;28;20209;-31
2023/10/30 03:47:58;;;;;;;2.00;1.90;;;;;;;;;;5065099;28;20207;-31
2023/10/30 03:50:25;;;;;;;1.80;1.70;;;;;;;;;;5063805;28;20468;-30
2023/10/30 03:52:54;;;;;;;2.30;2.10;;;;;;;;;;5070292;28;20194;-31
2023/10/30 03:55:21;;;;;;;2.20;1.90;;;;;;;;;;5058443;28;20239;-30
2023/10/30 03:57:48;;;;;;;2.13;1.93;;;;;;;;;;5066334;28;20208;-33
2023/10/30 04:00:15;;;;;;;2.13;1.93;;;;;;;;;;5070425;28;20651;-31
2023/10/30 04:02:43;;;;;;;2.00;1.87;;;;;;;;;;5064476;28;20208;-32
2023/10/30 04:05:10;;;;;;;2.20;1.90;;;;;;;;;;5070199;28;20217;-31
2023/10/30 04:07:37;;;;;;;1.93;1.70;;;;;;;;;;5069641;28;20568;-30
2023/10/30 04:10:06;;;;;;;2.67;2.47;;;;;;;;;;5064349;28;20220;-32
2023/10/30 04:12:33;;;;;;;3.97;2.40;;;;;;;;;;5069254;28;20216;-30
2023/10/30 04:15:00;;;;;;;2.63;2.30;;;;;;;;;;5069982;28;20308;-31
2023/10/30 04:17:27;;;;;;;2.53;2.30;;;;;;;;;;5070013;28;20205;-30
2023/10/30 04:19:54;;;;;;;2.20;2.00;;;;;;;;;;5062038;28;20554;-34
2023/10/30 04:22:21;;;;;;;2.30;2.10;;;;;;;;;;5063738;28;20210;-30
2023/10/30 04:24:49;;;;;;;2.03;1.93;;;;;;;;;;5061304;28;20259;-31
2023/10/30 04:27:17;;;;;;;2.50;2.30;;;;;;;;;;5064772;28;20267;-30
2023/10/30 04:29:44;;;;;;;2.90;2.50;;;;;;;;;;5069780;28;20456;-32
2023/10/30 04:32:12;;;;;;;3.50;2.90;;;;;;;;;;5069553;28;20213;-31
2023/10/30 04:34:39;;;;;;;2.63;2.43;;;;;;;;;;5062256;28;20248;-31
2023/10/30 04:37:06;;;;;;;2.53;2.33;;;;;;;;;;5068882;28;20217;-29
2023/10/30 04:39:33;;;;;;;4.13;2.87;;;;;;;;;;5060284;28;20229;-31
2023/10/30 04:42:00;;;;;;;2.70;2.50;;;;;;;;;;5058753;28;20213;-31
2023/10/30 04:44:29;;;;;;;4.03;2.83;;;;;;;;;;5069306;28;20229;-31
2023/10/30 04:46:56;;;;;;;7.13;2.70;;;;;;;;;;5069823;28;20296;-32
2023/10/30 04:49:23;;;;;;;2.97;2.77;;;;;;;;;;5061916;28;20233;-30
2023/10/30 04:51:51;;;;;;;2.70;2.50;;;;;;;;;;5068915;28;20205;-32
2023/10/30 04:54:18;;;;;;;3.40;3.10;;;;;;;;;;5063296;28;20229;-30
2023/10/30 04:56:46;;;;;;;2.63;2.43;;;;;;;;;;5068672;28;20680;-30
2023/10/30 04:59:13;;;;;;;2.53;2.33;;;;;;;;;;5069304;28;20213;-31
2023/10/30 05:01:42;;;;;;;4.03;2.80;;;;;;;;;;5066838;28;20213;-30
2023/10/30 05:04:09;;;;;;;2.93;2.50;;;;;;;;;;5055814;28;20222;-30
2023/10/30 05:06:36;;;;;;;6.10;2.70;;;;;;;;;;5067425;28;20237;-31
2023/10/30 05:09:04;;;;;;;2.10;2.00;;;;;;;;;;5065255;28;20211;-31
2023/10/30 05:11:31;;;;;;;4.20;2.83;;;;;;;;;;5067573;28;20217;-30
2023/10/30 05:13:59;;;;;;;2.93;2.47;;;;;;;;;;5069262;28;20221;-30
2023/10/30 05:16:26;;;;;;;2.63;2.43;;;;;;;;;;5068809;28;20207;-30
2023/10/30 05:18:54;;;;;;;2.30;2.10;;;;;;;;;;5063659;28;20233;-31
2023/10/30 05:21:21;;;;;;;1.90;1.73;;;;;;;;;;5061205;28;20579;-30
2023/10/30 05:23:49;;;;;;;1.90;1.80;;;;;;;;;;5064433;28;20231;-31
2023/10/30 05:26:16;;;;;;;2.10;1.87;;;;;;;;;;5056059;28;20202;-30
2023/10/30 05:28:44;;;;;;;2.20;2.00;;;;;;;;;;5067623;28;20231;-30
2023/10/30 05:31:11;;;;;;;2.73;2.53;;;;;;;;;;5068789;28;20292;-30
2023/10/30 05:33:38;;;;;;;2.30;2.20;;;;;;;;;;5065976;28;20229;-35
2023/10/30 05:36:07;;;;;;;3.00;2.70;;;;;;;;;;5055034;28;20230;-31
2023/10/30 05:38:34;;;;;;;6.07;5.57;;;;;;;;;;5066681;28;20205;-30
2023/10/30 05:41:01;;;;;;;5.83;4.00;;;;;;;;;;5056991;28;20286;-30
2023/10/30 05:43:28;;;;;;;8.70;3.40;;;;;;;;;;5072257;28;20580;-30
2023/10/30 05:45:56;;;;;;;2.50;2.30;;;;;;;;;;5070257;28;20201;-30
2023/10/30 05:48:23;;;;;;;3.03;2.53;;;;;;;;;;5055389;28;20214;-29
2023/10/30 05:50:50;;;;;;;2.93;2.50;;;;;;;;;;5068224;28;20201;-31
2023/10/30 05:53:19;;;;;;;4.63;2.30;;;;;;;;;;5068371;28;20634;-30
2023/10/30 05:55:46;;;;;;;1.90;1.80;;;;;;;;;;5059824;28;20729;-32
2023/10/30 05:58:14;;;;;;;2.67;2.47;;;;;;;;;;5063795;28;20300;-32
2023/10/30 06:00:42;;;;;;;3.77;2.17;;;;;;;;;;5070569;28;20322;-33
2023/10/30 06:03:10;;;;;;;2.17;2.00;;;;;;;;;;5072500;28;20242;-29
2023/10/30 06:05:38;;;;;;;2.10;2.00;;;;;;;;;;5073511;28;20201;-30
2023/10/30 06:08:05;;;;;;;2.33;1.80;;;;;;;;;;5076094;28;20571;-30
2023/10/30 06:10:34;;;;;;;1.77;1.67;;;;;;;;;;5064554;28;20549;-32
2023/10/30 06:13:01;;;;;;;1.90;1.80;;;;;;;;;;5077487;28;20201;-29
2023/10/30 06:15:28;;;;;;;2.10;1.93;;;;;;;;;;5078159;28;20216;-30
2023/10/30 06:17:56;;;;;;;1.60;1.50;;;;;;;;;;5069189;28;20311;-30
2023/10/30 06:20:23;;;;;;;1.80;1.70;;;;;;;;;;5070964;28;20213;-31
2023/10/30 06:22:50;;;;;;;2.30;2.00;;;;;;;;;;5070199;28;20220;-30
2023/10/30 06:25:17;;;;;;;3.00;2.70;;;;;;;;;;5056982;28;20228;-30
2023/10/30 06:27:46;;;;;;;2.03;1.93;;;;;;;;;;5063057;28;20209;-30
2023/10/30 06:30:14;;;;;;;2.50;2.30;;;;;;;;;;5072523;28;20208;-29
2023/10/30 06:32:42;;;;;;;2.23;1.90;;;;;;;;;;5070133;28;20386;-30
2023/10/30 06:35:09;;;;;;;3.50;2.50;;;;;;;;;;5067560;28;20656;-28
2023/10/30 06:37:37;;;;;;;3.67;2.30;;;;;;;;;;5072315;28;20213;-30
2023/10/30 06:40:04;;;;;;;5.60;2.53;;;;;;;;;;5064315;28;20565;-29
2023/10/30 06:42:31;;;;;;;4.70;2.97;;;;;;;;;;5064203;28;20202;-31
2023/10/30 06:45:00;;;;;;;3.00;2.30;;;;;;;;;;5074315;28;20315;-31
2023/10/30 06:47:28;;;;;;;2.60;2.40;;;;;;;;;;5069302;28;20297;-30
2023/10/30 06:49:55;;;;;;;7.63;2.90;;;;;;;;;;5065452;28;20734;-29
2023/10/30 06:52:22;;;;;;;3.23;2.93;;;;;;;;;;5073656;28;20233;-29
2023/10/30 06:54:49;;;;;;;4.00;2.73;;;;;;;;;;5063777;28;20236;-31
2023/10/30 06:57:17;;;;;;;2.90;2.50;;;;;;;;;;5068586;28;20252;-29
2023/10/30 06:59:44;;;;;;;3.63;2.60;;;;;;;;;;5073939;28;20220;-29
2023/10/30 07:02:12;;;;;;;3.17;2.90;;;;;;;;;;5073520;28;20560;-30
2023/10/30 07:04:39;;;;;;;6.23;2.80;;;;;;;;;;5068893;28;20316;-30
2023/10/30 07:07:07;;;;;;;4.77;2.70;;;;;;;;;;5068030;28;20212;-29
2023/10/30 07:09:34;;;;;;;3.43;3.13;;;;;;;;;;5062341;28;20225;-29
2023/10/30 07:12:01;;;;;;;3.83;3.23;;;;;;;;;;5067707;28;20284;-30
2023/10/30 07:14:29;;;;;;;4.10;3.60;;;;;;;;;;5073917;28;20225;-30
2023/10/30 07:16:56;;;;;;;3.77;3.37;;;;;;;;;;5068969;28;20258;-30
2023/10/30 07:19:24;;;;;;;4.50;3.60;;;;;;;;;;5069234;28;20214;-29
2023/10/30 07:21:52;;;;;;;3.97;3.30;;;;;;;;;;5072382;28;20791;-30
2023/10/30 07:24:25;;;;;;;5.90;3.40;;;;;;;;;;5067786;28;20230;-29
2023/10/30 07:26:52;;;;;;;4.23;3.50;;;;;;;;;;5067057;28;20213;-30
2023/10/30 07:29:19;;;;;;;4.37;3.90;;;;;;;;;;5074002;28;20268;-31
2023/10/30 07:31:46;;;;;;;3.67;3.20;;;;;;;;;;5073439;28;20277;-30
2023/10/30 07:34:13;;;;;;;4.33;3.70;;;;;;;;;;5066582;28;20226;-30
2023/10/30 07:36:43;;;;;;;4.37;3.97;;;;;;;;;;5071663;28;20221;-29
2023/10/30 07:39:10;;;;;;;4.00;3.60;;;;;;;;;;5069074;28;20209;-30
2023/10/30 07:41:37;;;;;;;4.37;3.97;;;;;;;;;;5064721;28;20202;-30
2023/10/30 07:44:04;;;;;;;4.90;3.67;;;;;;;;;;5074216;28;20251;-30
2023/10/30 07:46:31;;;;;;;5.27;4.73;;;;;;;;;;5074391;28;20377;-29
2023/10/30 07:48:58;;;;;;;4.87;4.00;;;;;;;;;;5069383;28;20288;-28
2023/10/30 07:51:26;;;;;;;4.93;4.53;;;;;;;;;;5069024;28;20946;-31
2023/10/30 07:53:54;;;;;;;4.60;3.90;;;;;;;;;;5068550;28;20232;-29
2023/10/30 07:56:21;;;;;;;5.07;4.03;;;;;;;;;;5055625;28;20301;-31
2023/10/30 07:58:48;;;;;;;5.97;5.07;;;;;;;;;;5071624;28;20267;-29
2023/10/30 08:01:18;;;;;;;4.53;4.10;;;;;;;;;;5073092;28;20217;-31
2023/10/30 08:03:46;;;;;;;5.80;5.17;;;;;;;;;;5067065;28;20236;-29
2023/10/30 08:06:13;;;;;;;5.57;4.57;;;;;;;;;;5068551;28;20205;-29
2023/10/30 08:08:40;;;;;;;5.07;4.57;;;;;;;;;;5069343;28;20215;-31
2023/10/30 08:11:09;;;;;;;5.20;4.70;;;;;;;;;;5066834;28;20206;-29
2023/10/30 08:13:37;;;;;;;5.70;4.90;;;;;;;;;;5072729;28;20226;-31
2023/10/30 08:16:05;;;;;;;6.17;4.77;;;;;;;;;;5073404;28;20236;-29
2023/10/30 08:18:35;;;;;;;6.00;5.23;;;;;;;;;;5070065;28;20209;-31
2023/10/30 08:21:02;;;;;;;5.20;3.80;;;;;;;;;;5059934;28;20245;-32
2023/10/30 08:23:29;;;;;;;5.97;4.83;;;;;;;;;;5073030;28;20784;-30
2023/10/30 08:25:56;;;;;;;5.30;4.60;;;;;;;;;;5067139;28;20217;-29
2023/10/30 08:28:25;;;;;;;4.20;3.77;;;;;;;;;;5072857;28;20209;-30
2023/10/30 08:30:52;;;;;;;5.77;4.27;;;;;;;;;;5072552;28;20670;-29
2023/10/30 08:33:29;;;;;;;4.10;3.70;;;;;;;;;;5065353;28;20229;-30
2023/10/30 08:35:56;;;;;;;4.87;3.70;;;;;;;;;;5070309;28;20217;-29
2023/10/30 08:38:24;;;;;;;3.97;3.37;;;;;;;;;;5072789;28;20212;-30
2023/10/30 08:40:53;;;;;;;4.80;3.40;;;;;;;;;;5061239;28;20203;-30
2023/10/30 08:43:20;;;;;;;4.57;3.83;;;;;;;;;;5067157;28;20241;-30
2023/10/30 08:45:49;;;;;;;4.23;3.40;;;;;;;;;;5072844;28;20217;-30
2023/10/30 08:48:16;;;;;;;4.20;3.33;;;;;;;;;;5063906;28;20206;-30
2023/10/30 08:50:43;;;;;;;3.40;3.10;;;;;;;;;;5072261;28;20300;-28
2023/10/30 08:53:10;;;;;;;5.57;3.03;;;;;;;;;;5072396;28;20285;-29
2023/10/30 08:55:37;;;;;;;3.57;2.70;;;;;;;;;;5069535;28;20231;-29
2023/10/30 08:58:04;;;;;;;4.07;2.70;;;;;;;;;;5065370;28;20292;-33
2023/10/30 09:00:31;;;;;;;2.67;2.47;;;;;;;;;;5072469;28;20277;-30
2023/10/30 09:03:00;;;;;;;3.17;2.30;;;;;;;;;;5069821;28;20205;-30
2023/10/30 09:05:27;;;;;;;3.20;1.80;;;;;;;;;;5065771;28;20202;-30
2023/10/30 09:07:55;;;;;;;1.47;1.37;;;;;;;;;;5071054;28;20232;-28
2023/10/30 09:10:26;;;;;;;1.20;1.20;;;;;;;;;;5066153;28;20209;-30
2023/10/30 09:12:53;;;;;;;1.67;1.20;;;;;;;;;;5070954;28;20218;-30
2023/10/30 09:15:20;;;;;;;1.10;1.10;;;;;;;;;;5067992;28;20222;-30
2023/10/30 09:17:48;;;;;;;1.63;1.10;;;;;;;;;;5067563;28;20298;-30
2023/10/30 09:20:16;;;;;;;1.80;1.00;;;;;;;;;;5067269;28;20300;-29
2023/10/30 09:22:46;;;;;;;0.97;0.77;;;;;;;;;;5070894;28;20215;-32
2023/10/30 09:25:13;;;;;;;1.43;1.00;;;;;;;;;;5057938;28;20229;-33
2023/10/30 09:27:40;;;;;;;0.97;0.97;;;;;;;;;;5060090;28;20272;-30
2023/10/30 09:30:08;;;;;;;1.13;0.63;;;;;;;;;;5072616;28;20212;-29
2023/10/30 09:32:35;;;;;;;2.20;0.90;;;;;;;;;;5067056;28;20209;-29
2023/10/30 09:35:03;;;;;;;2.13;0.90;;;;;;;;;;5067162;28;20256;-30
2023/10/30 09:37:31;;;;;;;1.47;0.57;;;;;;;;;;5071230;28;20699;-30
2023/10/30 09:39:58;;;;;;;0.57;0.57;;;;;;;;;;5059372;28;20240;-30
2023/10/30 09:42:26;;;;;;;6.50;0.80;;;;;;;;;;5058114;28;20233;-31
2023/10/30 09:44:53;;;;;;;0.60;0.60;;;;;;;;;;5070526;28;20234;-30
2023/10/30 09:47:21;;;;;;;1.17;0.60;;;;;;;;;;5067845;28;20244;-32
2023/10/30 09:49:50;;;;;;;0.67;0.67;;;;;;;;;;5058931;28;20268;-30
2023/10/30 09:52:17;;;;;;;1.10;0.63;;;;;;;;;;5070985;28;20233;-29
2023/10/30 09:54:47;;;;;;;0.70;0.70;;;;;;;;;;5064249;28;20229;-31
2023/10/30 09:57:14;;;;;;;0.50;0.50;;;;;;;;;;5064123;28;20853;-29
2023/10/30 09:59:42;;;;;;;0.70;0.70;;;;;;;;;;5072808;28;20254;-30
2023/10/30 10:02:10;;;;;;;2.47;1.13;;;;;;;;;;5071694;28;20214;-30
2023/10/30 10:04:40;;;;;;;2.47;0.70;;;;;;;;;;5068334;28;20256;-31
2023/10/30 10:07:08;;;;;;;1.47;0.87;;;;;;;;;;5070584;28;20573;-31
2023/10/30 10:09:35;;;;;;;0.83;0.50;;;;;;;;;;5059472;28;20298;-29
2023/10/30 10:12:20;;;;;;;1.03;0.70;;;;;;;;;;5053470;28;20284;-32
2023/10/30 10:14:50;;;;;;;3.00;0.70;;;;;;;;;;5070832;28;20308;-30
2023/10/30 10:17:19;;;;;;;1.07;0.77;;;;;;;;;;5067031;28;20243;-30
2023/10/30 10:19:47;;;;;;;0.60;0.60;;;;;;;;;;5060344;28;20231;-33
2023/10/30 10:22:27;;;;;;;1.47;0.50;;;;;;;;;;5071033;28;20209;-31
2023/10/30 10:24:55;;;;;;;0.50;0.50;;;;;;;;;;5065103;28;20229;-29
2023/10/30 10:27:24;;;;;;;1.20;0.70;;;;;;;;;;5066940;28;20205;-30
2023/10/30 10:29:55;;;;;;;2.43;0.80;;;;;;;;;;5068070;28;20256;-30
2023/10/30 10:32:25;;;;;;;1.60;0.70;;;;;;;;;;5068442;28;20224;-29
2023/10/30 10:34:53;;;;;;;0.57;0.57;;;;;;;;;;5067133;28;20224;-31
2023/10/30 10:37:20;;;;;;;0.80;0.80;;;;;;;;;;5071208;28;20235;-29
2023/10/30 10:39:48;;;;;;;0.57;0.57;;;;;;;;;;5056495;28;20289;-31
2023/10/30 10:42:15;;;;;;;0.73;0.73;;;;;;;;;;5049189;28;20215;-30
2023/10/30 10:44:45;;;;;;;0.70;0.70;;;;;;;;;;5067640;28;20227;-30
2023/10/30 10:47:13;;;;;;;0.60;0.60;;;;;;;;;;5070967;28;20238;-33
2023/10/30 10:49:40;;;;;;;1.07;0.60;;;;;;;;;;5069328;28;20205;-30
2023/10/30 10:52:10;;;;;;;0.50;0.47;;;;;;;;;;5068249;28;20226;-28
2023/10/30 10:54:42;;;;;;;1.40;0.57;;;;;;;;;;5057126;28;20229;-30
2023/10/30 10:57:10;;;;;;;1.17;0.80;;;;;;;;;;5049434;28;20227;-30
2023/10/30 10:59:38;;;;;;;0.60;0.60;;;;;;;;;;5067797;28;20297;-30
2023/10/30 11:02:10;;;;;;;0.63;0.63;;;;;;;;;;5068659;28;20300;-30
2023/10/30 11:04:37;;;;;;;0.60;0.60;;;;;;;;;;5065256;28;20227;-30
2023/10/30 11:07:08;;;;;;;0.97;0.60;;;;;;;;;;5068751;28;20205;-32
2023/10/30 11:09:41;;;;;;;0.70;0.70;;;;;;;;;;5060590;28;20202;-31
2023/10/30 11:12:12;;;;;;;0.50;0.50;;;;;;;;;;5060488;28;20211;-30
2023/10/30 11:14:44;;;;;;;1.70;0.80;;;;;;;;;;5060793;28;20218;-30
2023/10/30 11:17:12;;;;;;;0.50;0.50;;;;;;;;;;5056932;28;20240;-31
2023/10/30 11:19:39;;;;;;;2.43;0.70;;;;;;;;;;5068703;28;20306;-30
2023/10/30 11:22:06;;;;;;;1.07;0.60;;;;;;;;;;5072312;28;20322;-30
2023/10/30 11:24:37;;;;;;;1.00;0.70;;;;;;;;;;5067793;28;20232;-31
2023/10/30 11:27:10;;;;;;;0.50;0.50;;;;;;;;;;5067033;28;20639;-31
2023/10/30 11:29:53;;;;;;;1.57;0.60;;;;;;;;;;5071803;28;20574;-32
2023/10/30 11:32:22;;;;;;;0.53;0.50;;;;;;;;;;5073118;28;20296;-30
2023/10/30 11:34:49;;;;;;;1.00;0.60;;;;;;;;;;5068838;28;20225;-30
2023/10/30 11:37:17;;;;;;;2.13;1.23;;;;;;;;;;5072539;28;20663;-31
2023/10/30 11:39:45;;;;;;;3.17;1.10;;;;;;;;;;5066542;28;20288;-31
2023/10/30 11:42:28;;;;;;;2.00;0.80;;;;;;;;;;5072257;28;20210;-29
2023/10/30 11:45:17;;;;;;;1.17;0.90;;;;;;;;;;5064347;28;20225;-29
2023/10/30 11:47:46;;;;;;;3.77;1.00;;;;;;;;;;5072785;28;20205;-30
2023/10/30 11:50:13;;;;;;;1.60;0.80;;;;;;;;;;5067704;28;20207;-29
2023/10/30 11:52:41;;;;;;;1.13;0.90;;;;;;;;;;5069271;28;20364;-30
2023/10/30 11:55:09;;;;;;;0.70;0.70;;;;;;;;;;5069028;28;20227;-30
2023/10/30 11:57:36;;;;;;;0.87;0.80;;;;;;;;;;5072158;28;20297;-30
2023/10/30 12:00:04;;;;;;;1.07;0.60;;;;;;;;;;5072204;28;20205;-31
2023/10/30 12:02:31;;;;;;;1.53;1.03;;;;;;;;;;5061269;28;20209;-33
2023/10/30 12:05:07;;;;;;;1.43;0.90;;;;;;;;;;5070020;28;20226;-29
2023/10/30 12:07:34;;;;;;;2.57;0.80;;;;;;;;;;5073322;28;20197;-30
2023/10/30 12:10:02;;;;;;;1.90;0.87;;;;;;;;;;5062194;28;20217;-31
2023/10/30 12:12:29;;;;;;;1.03;0.70;;;;;;;;;;5072012;28;20262;-31
2023/10/30 12:14:59;;;;;;;1.80;1.00;;;;;;;;;;5072311;28;20308;-31
2023/10/30 12:17:26;;;;;;;3.03;0.90;;;;;;;;;;5072419;28;20224;-31
2023/10/30 12:19:53;;;;;;;2.23;1.10;;;;;;;;;;5063113;28;20235;-32
2023/10/30 12:22:21;;;;;;;2.00;0.90;;;;;;;;;;5065041;28;20240;-31
2023/10/30 12:24:50;;;;;;;3.23;1.10;;;;;;;;;;5063779;28;20222;-31
2023/10/30 12:27:21;;;;;;;0.80;0.80;;;;;;;;;;5072101;28;20588;-30
2023/10/30 12:29:52;;;;;;;2.37;1.10;;;;;;;;;;5072492;28;20228;-29
2023/10/30 12:32:19;;;;;;;1.23;0.90;;;;;;;;;;5068782;28;20243;-31
2023/10/30 12:34:46;;;;;;;1.20;1.07;;;;;;;;;;5067570;28;20266;-31
2023/10/30 12:37:23;;;;;;;3.37;1.23;;;;;;;;;;5072794;28;20230;-31
2023/10/30 12:40:07;;;;;;;1.97;1.17;;;;;;;;;;5065619;28;20289;-29
2023/10/30 12:42:35;;;;;;;1.70;0.97;;;;;;;;;;5065938;28;20208;-30
2023/10/30 12:45:07;;;;;;;1.23;1.10;;;;;;;;;;5071807;28;20221;-29
2023/10/30 12:47:35;;;;;;;1.10;0.90;;;;;;;;;;5071873;28;20228;-29
2023/10/30 12:50:03;;;;;;;0.80;0.80;;;;;;;;;;5060703;28;20285;-30
2023/10/30 12:52:31;;;;;;;1.50;1.00;;;;;;;;;;5070156;28;20255;-32
2023/10/30 12:54:59;;;;;;;1.27;0.90;;;;;;;;;;5066826;28;20713;-31
2023/10/30 12:57:26;;;;;;;4.63;1.13;;;;;;;;;;5071962;28;20225;-29
2023/10/30 12:59:53;;;;;;;1.10;1.10;;;;;;;;;;5072287;28;20205;-32
2023/10/30 13:02:20;;;;;;;1.10;1.00;;;;;;;;;;5066174;28;20213;-32
2023/10/30 13:04:47;;;;;;;1.17;1.00;;;;;;;;;;5069317;28;20237;-30
2023/10/30 13:07:15;;;;;;;1.10;1.00;;;;;;;;;;5071105;28;20662;-31
2023/10/30 13:09:44;;;;;;;0.97;0.87;;;;;;;;;;5064560;28;20210;-31
2023/10/30 13:12:11;;;;;;;1.07;0.97;;;;;;;;;;5069403;28;20205;-30
2023/10/30 13:14:38;;;;;;;1.27;1.00;;;;;;;;;;5072111;28;20228;-30
2023/10/30 13:17:05;;;;;;;2.93;0.90;;;;;;;;;;5065263;28;20237;-30
2023/10/30 13:19:33;;;;;;;1.27;1.10;;;;;;;;;;5071469;28;20266;-30
2023/10/30 13:22:00;;;;;;;0.70;0.70;;;;;;;;;;5071601;28;20209;-31
2023/10/30 13:24:27;;;;;;;1.77;1.00;;;;;;;;;;5065970;28;20225;-31
2023/10/30 13:26:56;;;;;;;0.80;0.80;;;;;;;;;;5068770;28;20288;-31
2023/10/30 13:29:27;;;;;;;1.03;1.00;;;;;;;;;;5070576;28;20233;-30
2023/10/30 13:31:55;;;;;;;3.07;1.17;;;;;;;;;;5070890;28;20262;-30
2023/10/30 13:34:22;;;;;;;1.23;0.90;;;;;;;;;;5064167;28;20232;-31
2023/10/30 13:36:49;;;;;;;3.10;1.13;;;;;;;;;;5073483;28;20500;-31
2023/10/30 13:39:16;;;;;;;1.67;0.80;;;;;;;;;;5069848;28;20205;-29
2023/10/30 13:41:47;;;;;;;0.80;0.80;;;;;;;;;;5068624;28;20216;-31
2023/10/30 13:44:17;;;;;;;1.10;1.00;;;;;;;;;;5069186;28;20221;-31
2023/10/30 13:46:44;;;;;;;0.93;0.90;;;;;;;;;;5070020;28;20280;-29
2023/10/30 13:49:11;;;;;;;1.20;1.00;;;;;;;;;;5060792;28;20216;-29
2023/10/30 13:51:39;;;;;;;0.80;0.80;;;;;;;;;;5058283;28;20244;-30
2023/10/30 13:54:07;;;;;;;1.27;1.00;;;;;;;;;;5066560;28;20225;-31
2023/10/30 13:56:34;;;;;;;0.87;0.80;;;;;;;;;;5066771;28;20619;-30
2023/10/30 13:59:01;;;;;;;1.40;1.07;;;;;;;;;;5071236;28;20204;-30
2023/10/30 14:01:30;;;;;;;1.20;0.97;;;;;;;;;;5063110;28;20193;-31
2023/10/30 14:03:57;;;;;;;1.17;1.07;;;;;;;;;;5061007;28;20221;-31
2023/10/30 14:06:24;;;;;;;1.10;0.90;;;;;;;;;;5070317;28;20296;-30
2023/10/30 14:08:51;;;;;;;1.27;1.00;;;;;;;;;;5067166;28;20225;-31
2023/10/30 14:11:19;;;;;;;1.00;1.00;;;;;;;;;;5060945;28;20216;-31
2023/10/30 14:13:46;;;;;;;1.87;0.90;;;;;;;;;;5071272;28;20282;-29
2023/10/30 14:16:13;;;;;;;0.87;0.87;;;;;;;;;;5070230;28;20201;-32
2023/10/30 14:18:42;;;;;;;0.93;0.80;;;;;;;;;;5065870;28;20225;-30
2023/10/30 14:21:09;;;;;;;1.57;0.93;;;;;;;;;;5070564;28;20300;-30
2023/10/30 14:23:36;;;;;;;2.83;1.03;;;;;;;;;;5070629;28;20321;-29
2023/10/30 14:26:03;;;;;;;1.50;0.93;;;;;;;;;;5061712;28;20205;-32
2023/10/30 14:28:30;;;;;;;0.90;0.90;;;;;;;;;;5062405;28;20229;-32
2023/10/30 14:30:57;;;;;;;0.80;0.80;;;;;;;;;;5069224;28;20228;-32
2023/10/30 14:33:25;;;;;;;1.13;0.90;;;;;;;;;;5059552;28;20324;-31
2023/10/30 14:35:53;;;;;;;1.67;1.00;;;;;;;;;;5069445;28;20208;-29
2023/10/30 14:38:20;;;;;;;1.10;0.90;;;;;;;;;;5069042;28;20223;-31
2023/10/30 14:40:47;;;;;;;5.00;1.13;;;;;;;;;;5056318;28;20284;-32
2023/10/30 14:43:14;;;;;;;1.40;1.30;;;;;;;;;;5068794;28;20296;-31
2023/10/30 14:45:42;;;;;;;2.70;1.20;;;;;;;;;;5071092;28;20200;-31
2023/10/30 14:48:11;;;;;;;0.90;0.90;;;;;;;;;;5070458;28;20206;-31